createdAt,value
2022-11-05T00:00:07.216Z,7.23
2022-11-05T00:00:57.063Z,7.23
2022-11-05T00:01:46.840Z,7.22
2022-11-05T00:02:36.522Z,7.20
2022-11-05T00:03:26.290Z,7.19
2022-11-05T00:04:16.018Z,7.18
2022-11-05T00:05:05.858Z,7.15
2022-11-05T00:05:55.610Z,7.15
2022-11-05T00:06:45.781Z,7.13
2022-11-05T00:07:42.086Z,7.12
2022-11-05T00:08:32.406Z,7.11
2022-11-05T00:09:22.566Z,7.10
2022-11-05T00:10:01.508Z,7.09
2022-11-05T00:10:35.694Z,7.07
2022-11-05T00:11:07.210Z,7.08
2022-11-05T00:11:57.063Z,7.05
2022-11-05T00:12:46.919Z,7.05
2022-11-05T00:13:36.934Z,7.04
2022-11-05T00:14:26.837Z,7.03
2022-11-05T00:15:17.305Z,7.01
2022-11-05T00:16:06.993Z,7.00
2022-11-05T00:16:44.240Z,6.98
2022-11-05T00:17:15.534Z,6.97
2022-11-05T00:17:46.820Z,6.97
2022-11-05T00:18:18.345Z,6.96
2022-11-05T00:19:06.302Z,6.96
2022-11-05T00:19:37.695Z,6.93
2022-11-05T00:20:11.174Z,6.93
2022-11-05T00:20:42.531Z,6.92
2022-11-05T00:21:32.587Z,6.93
2022-11-05T00:22:22.311Z,6.92
2022-11-05T00:23:20.250Z,6.90
2022-11-05T00:24:09.968Z,6.88
2022-11-05T00:24:59.812Z,6.87
2022-11-05T00:25:31.173Z,6.85
2022-11-05T00:26:04.874Z,6.84
2022-11-05T00:26:36.192Z,6.84
2022-11-05T00:27:08.160Z,6.84
2022-11-05T00:27:43.238Z,6.83
2022-11-05T00:28:14.726Z,6.83
2022-11-05T00:28:47.123Z,6.80
2022-11-05T00:29:18.423Z,6.81
2022-11-05T00:29:49.763Z,6.81
2022-11-05T00:30:26.097Z,6.78
2022-11-05T00:31:06.423Z,6.77
2022-11-05T00:31:38.876Z,6.77
2022-11-05T00:32:10.378Z,6.76
2022-11-05T00:32:41.691Z,6.76
2022-11-05T00:33:13.132Z,6.75
2022-11-05T00:33:44.600Z,6.75
2022-11-05T00:34:15.903Z,6.76
2022-11-05T00:34:47.244Z,6.72
2022-11-05T00:35:22.021Z,6.74
2022-11-05T00:35:53.324Z,6.71
2022-11-05T00:36:24.646Z,6.73
2022-11-05T00:36:56.204Z,6.70
2022-11-05T00:37:28.528Z,6.67
2022-11-05T00:37:59.839Z,6.67
2022-11-05T00:38:31.427Z,6.69
2022-11-05T00:39:02.807Z,6.68
2022-11-05T00:39:34.131Z,6.67
2022-11-05T00:40:06.548Z,6.66
2022-11-05T00:40:38.136Z,6.65
2022-11-05T00:41:09.431Z,6.65
2022-11-05T00:41:40.771Z,6.63
2022-11-05T00:42:30.969Z,6.63
2022-11-05T00:43:20.898Z,6.61
2022-11-05T00:44:10.922Z,6.58
2022-11-05T00:45:05.155Z,6.58
2022-11-05T00:45:37.678Z,6.55
2022-11-05T00:46:09.254Z,6.56
2022-11-05T00:46:40.551Z,6.55
2022-11-05T00:47:30.668Z,6.53
2022-11-05T00:48:20.746Z,6.53
2022-11-05T00:49:10.883Z,6.51
2022-11-05T00:49:42.168Z,6.50
2022-11-05T00:50:14.081Z,6.48
2022-11-05T00:50:45.897Z,6.47
2022-11-05T00:51:17.203Z,6.47
2022-11-05T00:52:08.480Z,6.46
2022-11-05T00:53:00.240Z,6.46
2022-11-05T00:53:31.529Z,6.46
2022-11-05T00:54:03.089Z,6.46
2022-11-05T00:54:34.394Z,6.45
2022-11-05T00:55:05.879Z,6.44
2022-11-05T00:55:39.798Z,6.45
2022-11-05T00:56:11.491Z,6.46
2022-11-05T00:56:42.796Z,6.45
2022-11-05T00:57:14.132Z,6.48
2022-11-05T00:57:45.514Z,6.48
2022-11-05T00:58:19.901Z,6.46
2022-11-05T00:58:51.221Z,6.46
2022-11-05T00:59:22.745Z,6.41
2022-11-05T00:59:54.073Z,6.41
2022-11-05T01:00:28.498Z,6.44
2022-11-05T01:01:01.861Z,6.46
2022-11-05T01:01:33.285Z,6.43
2022-11-05T01:02:04.788Z,6.46
2022-11-05T01:02:36.342Z,6.45
2022-11-05T01:03:11.983Z,6.46
2022-11-05T01:03:48.825Z,6.45
2022-11-05T01:04:22.783Z,6.45
2022-11-05T01:04:54.083Z,6.45
2022-11-05T01:05:25.771Z,6.43
2022-11-05T01:06:08.820Z,6.42
2022-11-05T01:06:40.154Z,6.42
2022-11-05T01:07:11.457Z,6.38
2022-11-05T01:07:42.833Z,6.41
2022-11-05T01:08:15.894Z,6.41
2022-11-05T01:08:47.464Z,6.40
2022-11-05T01:09:18.846Z,6.39
2022-11-05T01:09:50.173Z,6.34
2022-11-05T01:10:21.932Z,6.37
2022-11-05T01:10:58.240Z,6.36
2022-11-05T01:11:37.258Z,6.36
2022-11-05T01:12:08.743Z,6.37
2022-11-05T01:12:40.067Z,6.38
2022-11-05T01:13:13.422Z,6.35
2022-11-05T01:13:44.921Z,6.35
2022-11-05T01:14:16.302Z,6.36
2022-11-05T01:14:47.618Z,6.34
2022-11-05T01:15:20.255Z,6.38
2022-11-05T01:15:52.046Z,6.34
2022-11-05T01:16:23.349Z,6.32
2022-11-05T01:16:54.819Z,6.35
2022-11-05T01:17:26.201Z,6.36
2022-11-05T01:17:57.534Z,6.33
2022-11-05T01:18:28.860Z,6.29
2022-11-05T01:19:01.805Z,6.34
2022-11-05T01:19:33.202Z,6.33
2022-11-05T01:20:05.049Z,6.33
2022-11-05T01:20:36.507Z,6.32
2022-11-05T01:21:15.673Z,6.30
2022-11-05T01:21:47.171Z,6.29
2022-11-05T01:22:18.530Z,6.27
2022-11-05T01:22:49.853Z,6.29
2022-11-05T01:23:21.487Z,6.27
2022-11-05T01:23:53.654Z,6.27
2022-11-05T01:24:25.068Z,6.24
2022-11-05T01:24:56.425Z,6.27
2022-11-05T01:25:27.949Z,6.25
2022-11-05T01:25:59.265Z,6.22
2022-11-05T01:26:31.686Z,6.24
2022-11-05T01:27:03.021Z,6.24
2022-11-05T01:27:36.588Z,6.22
2022-11-05T01:28:09.545Z,6.20
2022-11-05T01:28:40.997Z,6.22
2022-11-05T01:29:12.462Z,6.21
2022-11-05T01:29:43.874Z,6.18
2022-11-05T01:30:15.974Z,6.19
2022-11-05T01:30:55.216Z,6.18
2022-11-05T01:31:26.726Z,6.16
2022-11-05T01:31:58.259Z,6.17
2022-11-05T01:32:29.828Z,6.16
2022-11-05T01:33:01.265Z,6.16
2022-11-05T01:33:32.588Z,6.15
2022-11-05T01:34:04.163Z,6.15
2022-11-05T01:34:35.465Z,6.15
2022-11-05T01:35:10.255Z,6.14
2022-11-05T01:35:42.358Z,6.11
2022-11-05T01:36:14.239Z,6.14
2022-11-05T01:36:45.777Z,6.13
2022-11-05T01:37:17.090Z,6.12
2022-11-05T01:37:48.435Z,6.14
2022-11-05T01:38:19.764Z,6.11
2022-11-05T01:38:51.093Z,6.09
2022-11-05T01:39:22.633Z,6.10
2022-11-05T01:39:53.921Z,6.12
2022-11-05T01:40:25.792Z,6.13
2022-11-05T01:40:57.118Z,6.09
2022-11-05T01:41:29.089Z,6.12
2022-11-05T01:42:00.479Z,6.11
2022-11-05T01:42:32.894Z,6.08
2022-11-05T01:43:10.392Z,6.10
2022-11-05T01:43:47.961Z,6.11
2022-11-05T01:44:56.576Z,6.11
2022-11-05T01:45:28.540Z,6.09
2022-11-05T01:46:00.203Z,6.09
2022-11-05T01:46:35.908Z,6.09
2022-11-05T01:47:17.963Z,6.07
2022-11-05T01:48:06.747Z,6.08
2022-11-05T01:48:38.356Z,6.06
2022-11-05T01:49:33.186Z,6.06
2022-11-05T01:50:22.384Z,6.04
2022-11-05T01:50:59.348Z,6.03
2022-11-05T01:51:31.102Z,6.03
2022-11-05T01:52:04.570Z,6.01
2022-11-05T01:52:36.094Z,6.01
2022-11-05T01:53:22.855Z,6.01
2022-11-05T01:54:16.457Z,6.01
2022-11-05T01:54:48.012Z,5.99
2022-11-05T01:55:25.430Z,5.98
2022-11-05T01:56:11.779Z,5.98
2022-11-05T01:56:47.898Z,5.98
2022-11-05T01:57:20.351Z,5.98
2022-11-05T01:57:54.752Z,5.96
2022-11-05T01:58:30.667Z,5.96
2022-11-05T01:59:04.757Z,5.95
2022-11-05T01:59:48.431Z,5.94
2022-11-05T02:00:20.421Z,5.94
2022-11-05T02:00:52.848Z,5.93
2022-11-05T02:01:24.876Z,5.89
2022-11-05T02:01:56.430Z,5.92
2022-11-05T02:02:29.759Z,5.92
2022-11-05T02:03:01.689Z,5.91
2022-11-05T02:03:33.198Z,5.91
2022-11-05T02:04:09.971Z,5.90
2022-11-05T02:04:54.684Z,5.91
2022-11-05T02:05:26.464Z,5.87
2022-11-05T02:06:00.789Z,5.89
2022-11-05T02:06:37.059Z,5.86
2022-11-05T02:07:10.653Z,5.89
2022-11-05T02:07:45.514Z,5.88
2022-11-05T02:08:29.069Z,5.89
2022-11-05T02:09:11.246Z,5.89
2022-11-05T02:09:49.490Z,5.89
2022-11-05T02:10:21.414Z,5.87
2022-11-05T02:10:52.958Z,5.91
2022-11-05T02:11:24.767Z,5.91
2022-11-05T02:11:56.236Z,5.88
2022-11-05T02:12:29.146Z,5.92
2022-11-05T02:13:00.675Z,5.91
2022-11-05T02:13:32.034Z,5.92
2022-11-05T02:14:03.456Z,5.94
2022-11-05T02:14:34.954Z,5.89
2022-11-05T02:15:07.046Z,5.92
2022-11-05T02:15:51.723Z,5.87
2022-11-05T02:16:41.074Z,5.93
2022-11-05T02:17:36.409Z,5.92
2022-11-05T02:18:44.704Z,5.93
2022-11-05T02:19:52.726Z,5.91
2022-11-05T02:20:34.562Z,5.92
2022-11-05T02:21:43.567Z,5.91
2022-11-05T02:22:48.805Z,5.89
2022-11-05T02:23:38.658Z,5.88
2022-11-05T02:24:20.490Z,5.87
2022-11-05T02:25:42.023Z,5.87
2022-11-05T02:26:29.832Z,5.87
2022-11-05T02:27:18.915Z,5.85
2022-11-05T02:28:26.534Z,5.85
2022-11-05T02:29:25.673Z,5.84
2022-11-05T02:30:34.750Z,5.85
2022-11-05T02:31:35.962Z,5.83
2022-11-05T02:32:29.018Z,5.84
2022-11-05T02:33:19.058Z,5.83
2022-11-05T02:34:18.751Z,5.83
2022-11-05T02:35:02.061Z,5.83
2022-11-05T02:35:39.010Z,5.82
2022-11-05T02:36:24.213Z,5.81
2022-11-05T02:37:10.306Z,5.79
2022-11-05T02:37:49.415Z,5.78
2022-11-05T02:38:30.617Z,5.79
2022-11-05T02:39:11.983Z,5.77
2022-11-05T02:39:59.538Z,5.79
2022-11-05T02:40:39.511Z,5.80
2022-11-05T02:41:22.674Z,5.79
2022-11-05T02:43:33.486Z,5.79
2022-11-05T02:44:23.132Z,5.77
2022-11-05T02:45:19.857Z,5.77
2022-11-05T02:46:03.906Z,5.77
2022-11-05T02:46:46.649Z,5.75
2022-11-05T02:47:44.584Z,5.75
2022-11-05T02:48:26.089Z,5.74
2022-11-05T02:49:26.302Z,5.74
2022-11-05T02:50:14.349Z,5.73
2022-11-05T02:51:12.994Z,5.71
2022-11-05T02:51:55.519Z,5.71
2022-11-05T02:52:41.463Z,5.71
2022-11-05T02:53:19.658Z,5.72
2022-11-05T02:53:58.219Z,5.71
2022-11-05T02:54:38.625Z,5.70
2022-11-05T02:55:27.464Z,5.69
2022-11-05T02:56:20.039Z,5.70
2022-11-05T02:56:55.416Z,5.69
2022-11-05T02:57:29.303Z,5.69
2022-11-05T02:58:03.465Z,5.70
2022-11-05T02:58:35.668Z,5.67
2022-11-05T02:59:07.037Z,5.68
2022-11-05T02:59:38.377Z,5.68
2022-11-05T03:00:39.126Z,5.70
2022-11-05T03:01:13.191Z,5.69
2022-11-05T03:01:47.016Z,5.69
2022-11-05T03:02:18.866Z,5.68
2022-11-05T03:02:50.439Z,5.68
2022-11-05T03:03:42.915Z,5.68
2022-11-05T03:04:17.114Z,5.66
2022-11-05T03:04:48.475Z,5.67
2022-11-05T03:05:29.318Z,5.66
2022-11-05T03:06:22.070Z,5.66
2022-11-05T03:07:16.445Z,5.66
2022-11-05T03:07:59.000Z,5.63
2022-11-05T03:08:55.272Z,5.63
2022-11-05T03:09:47.835Z,5.63
2022-11-05T03:10:40.247Z,5.63
2022-11-05T03:11:21.327Z,5.60
2022-11-05T03:12:05.042Z,5.60
2022-11-05T03:12:39.147Z,5.60
2022-11-05T03:13:28.723Z,5.59
2022-11-05T03:14:11.572Z,5.60
2022-11-05T03:14:58.100Z,5.59
2022-11-05T03:15:56.207Z,5.59
2022-11-05T03:16:39.434Z,5.58
2022-11-05T03:17:25.818Z,5.58
2022-11-05T03:18:08.889Z,5.58
2022-11-05T03:18:47.607Z,5.57
2022-11-05T03:19:26.510Z,5.57
2022-11-05T03:20:21.077Z,5.56
2022-11-05T03:21:09.233Z,5.56
2022-11-05T03:21:49.322Z,5.57
2022-11-05T03:22:25.654Z,5.55
2022-11-05T03:23:19.222Z,5.54
2022-11-05T03:24:03.356Z,5.54
2022-11-05T03:24:38.871Z,5.54
2022-11-05T03:25:19.367Z,5.53
2022-11-05T03:26:01.760Z,5.53
2022-11-05T03:26:44.173Z,5.52
2022-11-05T03:27:19.898Z,5.53
2022-11-05T03:27:57.587Z,5.53
2022-11-05T03:28:32.886Z,5.52
2022-11-05T03:29:09.491Z,5.53
2022-11-05T03:29:49.599Z,5.52
2022-11-05T03:30:21.274Z,5.51
2022-11-05T03:30:56.382Z,5.51
2022-11-05T03:31:30.088Z,5.51
2022-11-05T03:32:04.534Z,5.49
2022-11-05T03:32:41.771Z,5.51
2022-11-05T03:33:20.846Z,5.50
2022-11-05T03:33:54.921Z,5.50
2022-11-05T03:34:31.765Z,5.51
2022-11-05T03:35:10.612Z,5.50
2022-11-05T03:35:47.494Z,5.49
2022-11-05T03:36:32.351Z,5.50
2022-11-05T03:37:06.319Z,5.47
2022-11-05T03:37:40.450Z,5.49
2022-11-05T03:38:22.021Z,5.47
2022-11-05T03:39:14.624Z,5.46
2022-11-05T03:39:50.496Z,5.44
2022-11-05T03:40:24.950Z,5.44
2022-11-05T03:41:00.445Z,5.44
2022-11-05T03:41:34.247Z,5.44
2022-11-05T03:42:08.457Z,5.43
2022-11-05T03:42:44.663Z,5.44
2022-11-05T03:43:18.036Z,5.43
2022-11-05T03:43:54.220Z,5.39
2022-11-05T03:44:30.897Z,5.39
2022-11-05T03:45:08.753Z,5.39
2022-11-05T03:46:02.893Z,5.39
2022-11-05T03:46:39.188Z,5.43
2022-11-05T03:47:16.596Z,5.40
2022-11-05T03:47:51.683Z,5.44
2022-11-05T03:48:26.914Z,5.45
2022-11-05T03:49:01.557Z,5.43
2022-11-05T03:49:40.308Z,5.45
2022-11-05T03:50:23.668Z,5.44
2022-11-05T03:51:11.585Z,5.45
2022-11-05T03:51:55.725Z,5.45
2022-11-05T03:52:33.504Z,5.45
2022-11-05T03:53:14.296Z,5.43
2022-11-05T03:53:52.848Z,5.42
2022-11-05T03:54:24.459Z,5.40
2022-11-05T03:54:56.015Z,5.41
2022-11-05T03:55:34.941Z,5.42
2022-11-05T03:56:12.724Z,5.39
2022-11-05T03:56:59.262Z,5.41
2022-11-05T03:57:34.330Z,5.40
2022-11-05T03:58:06.131Z,5.39
2022-11-05T03:58:42.901Z,5.37
2022-11-05T03:59:14.480Z,5.38
2022-11-05T03:59:48.380Z,5.38
2022-11-05T04:00:21.886Z,5.36
2022-11-05T04:00:53.400Z,5.37
2022-11-05T04:01:25.555Z,5.36
2022-11-05T04:01:57.326Z,5.39
2022-11-05T04:02:28.909Z,5.37
2022-11-05T04:03:00.449Z,5.40
2022-11-05T04:03:36.552Z,5.40
2022-11-05T04:04:08.932Z,5.40
2022-11-05T04:04:40.774Z,5.39
2022-11-05T04:05:12.276Z,5.40
2022-11-05T04:05:43.996Z,5.40
2022-11-05T04:06:34.013Z,5.39
2022-11-05T04:07:24.776Z,5.39
2022-11-05T04:08:14.837Z,5.38
2022-11-05T04:09:04.842Z,5.38
2022-11-05T04:09:54.721Z,5.35
2022-11-05T04:10:45.070Z,5.34
2022-11-05T04:11:35.308Z,5.32
2022-11-05T04:12:25.228Z,5.32
2022-11-05T04:13:14.986Z,5.31
2022-11-05T04:13:46.274Z,5.30
2022-11-05T04:14:17.603Z,5.28
2022-11-05T04:14:48.935Z,5.30
2022-11-05T04:15:20.247Z,5.29
2022-11-05T04:16:11.442Z,5.28
2022-11-05T04:17:01.294Z,5.27
2022-11-05T04:17:32.761Z,5.27
2022-11-05T04:18:04.075Z,5.26
2022-11-05T04:18:36.580Z,5.26
2022-11-05T04:19:07.894Z,5.25
2022-11-05T04:20:00.077Z,5.26
2022-11-05T04:20:50.123Z,5.25
2022-11-05T04:21:56.903Z,5.24
2022-11-05T04:22:49.330Z,5.24
2022-11-05T04:23:39.537Z,5.24
2022-11-05T04:24:10.963Z,5.25
2022-11-05T04:24:42.262Z,5.25
2022-11-05T04:25:15.274Z,5.26
2022-11-05T04:25:46.772Z,5.25
2022-11-05T04:26:23.082Z,5.26
2022-11-05T04:26:54.415Z,5.26
2022-11-05T04:27:25.726Z,5.24
2022-11-05T04:28:03.012Z,5.26
2022-11-05T04:28:52.964Z,5.27
2022-11-05T04:29:42.837Z,5.27
2022-11-05T04:30:18.586Z,5.28
2022-11-05T04:30:50.120Z,5.27
2022-11-05T04:31:21.435Z,5.29
2022-11-05T04:31:53.239Z,5.26
2022-11-05T04:32:24.589Z,5.26
2022-11-05T04:33:01.515Z,5.31
2022-11-05T04:33:32.830Z,5.29
2022-11-05T04:34:04.341Z,5.29
2022-11-05T04:34:35.647Z,5.31
2022-11-05T04:35:07.057Z,5.31
2022-11-05T04:35:41.089Z,5.32
2022-11-05T04:36:12.465Z,5.31
2022-11-05T04:36:43.773Z,5.33
2022-11-05T04:37:15.122Z,5.31
2022-11-05T04:37:46.605Z,5.34
2022-11-05T04:38:19.711Z,5.34
2022-11-05T04:38:51.079Z,5.30
2022-11-05T04:39:22.557Z,5.35
2022-11-05T04:39:54.041Z,5.34
2022-11-05T04:40:25.550Z,5.36
2022-11-05T04:41:13.003Z,5.32
2022-11-05T04:41:47.753Z,5.33
2022-11-05T04:42:19.168Z,5.34
2022-11-05T04:42:50.588Z,5.32
2022-11-05T04:43:22.406Z,5.31
2022-11-05T04:43:54.065Z,5.36
2022-11-05T04:44:25.430Z,5.37
2022-11-05T04:44:56.908Z,5.36
2022-11-05T04:45:30.658Z,5.38
2022-11-05T04:46:01.967Z,5.36
2022-11-05T04:46:33.303Z,5.36
2022-11-05T04:47:04.674Z,5.34
2022-11-05T04:47:36.009Z,5.33
2022-11-05T04:48:07.413Z,5.33
2022-11-05T04:48:39.964Z,5.37
2022-11-05T04:49:11.382Z,5.34
2022-11-05T04:49:42.743Z,5.32
2022-11-05T04:50:14.288Z,5.34
2022-11-05T04:50:45.625Z,5.33
2022-11-05T04:51:17.204Z,5.37
2022-11-05T04:51:48.553Z,5.33
2022-11-05T04:52:19.944Z,5.32
2022-11-05T04:52:51.488Z,5.34
2022-11-05T04:53:22.814Z,5.34
2022-11-05T04:53:54.357Z,5.33
2022-11-05T04:54:25.760Z,5.32
2022-11-05T04:54:57.205Z,5.29
2022-11-05T04:55:28.828Z,5.31
2022-11-05T04:56:18.650Z,5.33
2022-11-05T04:56:50.123Z,5.31
2022-11-05T04:57:21.513Z,5.31
2022-11-05T04:57:54.347Z,5.32
2022-11-05T04:58:25.703Z,5.32
2022-11-05T04:58:57.027Z,5.32
2022-11-05T04:59:28.343Z,5.31
2022-11-05T04:59:59.725Z,5.27
2022-11-05T05:00:31.076Z,5.28
2022-11-05T05:01:02.499Z,5.28
2022-11-05T05:01:34.047Z,5.29
2022-11-05T05:02:05.580Z,5.31
2022-11-05T05:02:37.425Z,5.32
2022-11-05T05:03:09.221Z,5.32
2022-11-05T05:03:41.336Z,5.32
2022-11-05T05:04:12.699Z,5.32
2022-11-05T05:04:44.843Z,5.31
2022-11-05T05:05:16.235Z,5.33
2022-11-05T05:05:47.536Z,5.34
2022-11-05T05:06:18.990Z,5.35
2022-11-05T05:06:50.298Z,5.34
2022-11-05T05:07:21.680Z,5.36
2022-11-05T05:07:53.035Z,5.38
2022-11-05T05:08:24.534Z,5.37
2022-11-05T05:08:55.851Z,5.39
2022-11-05T05:09:27.239Z,5.39
2022-11-05T05:09:58.608Z,5.39
2022-11-05T05:10:30.139Z,5.37
2022-11-05T05:11:06.454Z,5.39
2022-11-05T05:11:37.763Z,5.40
2022-11-05T05:12:09.080Z,5.42
2022-11-05T05:12:40.401Z,5.44
2022-11-05T05:13:12.075Z,5.44
2022-11-05T05:13:43.650Z,5.44
2022-11-05T05:14:15.000Z,5.45
2022-11-05T05:14:48.173Z,5.46
2022-11-05T05:15:19.525Z,5.44
2022-11-05T05:15:50.822Z,5.45
2022-11-05T05:16:24.994Z,5.47
2022-11-05T05:16:56.306Z,5.46
2022-11-05T05:17:27.888Z,5.47
2022-11-05T05:17:59.596Z,5.49
2022-11-05T05:18:30.891Z,5.46
2022-11-05T05:19:02.225Z,5.49
2022-11-05T05:19:53.543Z,5.49
2022-11-05T05:20:43.432Z,5.54
2022-11-05T05:21:35.262Z,5.53
2022-11-05T05:22:06.546Z,5.54
2022-11-05T05:22:37.998Z,5.54
2022-11-05T05:23:10.538Z,5.55
2022-11-05T05:23:42.415Z,5.54
2022-11-05T05:24:16.559Z,5.55
2022-11-05T05:24:52.609Z,5.56
2022-11-05T05:25:24.409Z,5.58
2022-11-05T05:25:58.795Z,5.60
2022-11-05T05:26:30.313Z,5.58
2022-11-05T05:27:01.644Z,5.58
2022-11-05T05:27:33.050Z,5.62
2022-11-05T05:28:04.464Z,5.63
2022-11-05T05:28:36.057Z,5.59
2022-11-05T05:29:08.955Z,5.65
2022-11-05T05:29:40.281Z,5.62
2022-11-05T05:30:11.881Z,5.67
2022-11-05T05:30:43.212Z,5.68
2022-11-05T05:31:15.030Z,5.67
2022-11-05T05:31:46.361Z,5.67
2022-11-05T05:32:17.690Z,5.67
2022-11-05T05:32:49.278Z,5.66
2022-11-05T05:33:20.581Z,5.70
2022-11-05T05:33:55.592Z,5.69
2022-11-05T05:34:26.912Z,5.72
2022-11-05T05:34:58.224Z,5.71
2022-11-05T05:35:29.946Z,5.68
2022-11-05T05:36:04.665Z,5.72
2022-11-05T05:36:40.199Z,5.70
2022-11-05T05:37:30.014Z,5.68
2022-11-05T05:38:01.383Z,5.72
2022-11-05T05:38:32.683Z,5.72
2022-11-05T05:39:08.502Z,5.72
2022-11-05T05:39:39.814Z,5.70
2022-11-05T05:40:11.547Z,5.70
2022-11-05T05:40:43.008Z,5.69
2022-11-05T05:41:33.352Z,5.72
2022-11-05T05:42:04.834Z,5.72
2022-11-05T05:42:41.741Z,5.71
2022-11-05T05:43:14.312Z,5.72
2022-11-05T05:43:45.879Z,5.71
2022-11-05T05:44:17.207Z,5.69
2022-11-05T05:44:48.771Z,5.70
2022-11-05T05:45:20.083Z,5.70
2022-11-05T05:45:51.403Z,5.68
2022-11-05T05:46:22.808Z,5.68
2022-11-05T05:46:55.399Z,5.70
2022-11-05T05:47:27.105Z,5.67
2022-11-05T05:47:58.465Z,5.69
2022-11-05T05:48:29.948Z,5.67
2022-11-05T05:49:01.338Z,5.67
2022-11-05T05:49:32.689Z,5.68
2022-11-05T05:50:04.549Z,5.70
2022-11-05T05:50:36.092Z,5.70
2022-11-05T05:51:10.421Z,5.69
2022-11-05T05:51:41.913Z,5.71
2022-11-05T05:52:13.585Z,5.72
2022-11-05T05:52:44.893Z,5.66
2022-11-05T05:53:16.245Z,5.71
2022-11-05T05:53:47.644Z,5.70
2022-11-05T05:54:18.961Z,5.69
2022-11-05T05:54:50.274Z,5.68
2022-11-05T05:55:21.687Z,5.71
2022-11-05T05:55:54.845Z,5.72
2022-11-05T05:56:26.395Z,5.67
2022-11-05T05:56:57.949Z,5.70
2022-11-05T05:57:29.281Z,5.69
2022-11-05T05:58:00.598Z,5.71
2022-11-05T05:58:34.734Z,5.70
2022-11-05T05:59:06.642Z,5.70
2022-11-05T05:59:37.969Z,5.71
2022-11-05T06:00:09.957Z,5.70
2022-11-05T06:00:41.260Z,5.70
2022-11-05T06:01:18.990Z,5.68
2022-11-05T06:02:09.391Z,5.72
2022-11-05T06:02:41.247Z,5.70
2022-11-05T06:03:12.959Z,5.69
2022-11-05T06:03:44.549Z,5.69
2022-11-05T06:04:16.107Z,5.70
2022-11-05T06:04:47.408Z,5.69
2022-11-05T06:05:18.731Z,5.68
2022-11-05T06:05:50.031Z,5.69
2022-11-05T06:06:21.473Z,5.69
2022-11-05T06:06:52.900Z,5.69
2022-11-05T06:07:24.211Z,5.69
2022-11-05T06:07:56.988Z,5.66
2022-11-05T06:08:29.403Z,5.68
2022-11-05T06:09:00.983Z,5.68
2022-11-05T06:09:32.295Z,5.65
2022-11-05T06:10:04.215Z,5.67
2022-11-05T06:10:35.729Z,5.68
2022-11-05T06:11:07.955Z,5.66
2022-11-05T06:11:39.600Z,5.67
2022-11-05T06:12:10.914Z,5.67
2022-11-05T06:12:42.210Z,5.67
2022-11-05T06:13:13.910Z,5.65
2022-11-05T06:13:45.332Z,5.66
2022-11-05T06:14:16.716Z,5.65
2022-11-05T06:14:48.163Z,5.64
2022-11-05T06:15:20.246Z,5.62
2022-11-05T06:15:51.864Z,5.65
2022-11-05T06:16:23.179Z,5.61
2022-11-05T06:16:54.501Z,5.64
2022-11-05T06:17:25.934Z,5.63
2022-11-05T06:17:57.419Z,5.62
2022-11-05T06:18:30.315Z,5.65
2022-11-05T06:19:02.629Z,5.61
2022-11-05T06:19:33.992Z,5.61
2022-11-05T06:20:05.895Z,5.59
2022-11-05T06:20:37.218Z,5.60
2022-11-05T06:21:11.424Z,5.63
2022-11-05T06:21:42.748Z,5.58
2022-11-05T06:22:14.097Z,5.62
2022-11-05T06:22:54.641Z,5.58
2022-11-05T06:23:26.085Z,5.58
2022-11-05T06:23:57.413Z,5.61
2022-11-05T06:24:28.792Z,5.58
2022-11-05T06:25:00.126Z,5.60
2022-11-05T06:25:31.451Z,5.60
2022-11-05T06:26:04.665Z,5.60
2022-11-05T06:26:42.508Z,5.60
2022-11-05T06:27:13.851Z,5.58
2022-11-05T06:27:45.142Z,5.57
2022-11-05T06:28:16.448Z,5.58
2022-11-05T06:28:47.960Z,5.59
2022-11-05T06:29:19.475Z,5.59
2022-11-05T06:29:50.771Z,5.58
2022-11-05T06:30:23.473Z,5.58
2022-11-05T06:30:55.327Z,5.58
2022-11-05T06:31:26.685Z,5.56
2022-11-05T06:31:57.994Z,5.54
2022-11-05T06:32:30.609Z,5.58
2022-11-05T06:33:03.925Z,5.58
2022-11-05T06:33:35.504Z,5.59
2022-11-05T06:34:06.857Z,5.54
2022-11-05T06:34:38.181Z,5.59
2022-11-05T06:35:09.726Z,5.58
2022-11-05T06:35:41.053Z,5.58
2022-11-05T06:36:15.732Z,5.59
2022-11-05T06:36:47.112Z,5.57
2022-11-05T06:37:18.422Z,5.59
2022-11-05T06:37:49.939Z,5.59
2022-11-05T06:38:21.407Z,5.57
2022-11-05T06:38:52.743Z,5.55
2022-11-05T06:39:24.111Z,5.54
2022-11-05T06:39:57.274Z,5.54
2022-11-05T06:40:29.347Z,5.60
2022-11-05T06:41:07.192Z,5.61
2022-11-05T06:42:04.168Z,5.61
2022-11-05T06:42:31.640Z,5.62
2022-11-05T06:43:03.138Z,5.58
2022-11-05T06:43:34.692Z,5.62
2022-11-05T06:44:06.024Z,5.61
2022-11-05T06:44:37.323Z,5.63
2022-11-05T06:45:09.166Z,5.63
2022-11-05T06:45:40.771Z,5.63
2022-11-05T06:46:12.401Z,5.65
2022-11-05T06:46:48.372Z,5.62
2022-11-05T06:47:20.081Z,5.63
2022-11-05T06:47:58.398Z,5.67
2022-11-05T06:48:29.965Z,5.67
2022-11-05T06:49:01.419Z,5.67
2022-11-05T06:49:32.736Z,5.68
2022-11-05T06:50:04.488Z,5.68
2022-11-05T06:50:35.802Z,5.67
2022-11-05T06:51:08.100Z,5.69
2022-11-05T06:51:39.403Z,5.67
2022-11-05T06:52:11.349Z,5.69
2022-11-05T06:52:42.699Z,5.71
2022-11-05T06:53:14.547Z,5.71
2022-11-05T06:53:45.983Z,5.67
2022-11-05T06:54:17.362Z,5.67
2022-11-05T06:54:49.161Z,5.67
2022-11-05T06:55:20.454Z,5.71
2022-11-05T06:55:52.527Z,5.69
2022-11-05T06:56:24.496Z,5.69
2022-11-05T06:56:55.799Z,5.68
2022-11-05T06:57:27.108Z,5.69
2022-11-05T06:57:58.689Z,5.70
2022-11-05T06:58:30.899Z,5.66
2022-11-05T06:59:02.232Z,5.67
2022-11-05T06:59:34.330Z,5.66
2022-11-05T07:00:08.183Z,5.69
2022-11-05T07:00:39.843Z,5.67
2022-11-05T07:01:11.364Z,5.69
2022-11-05T07:01:42.892Z,5.68
2022-11-05T07:02:14.387Z,5.68
2022-11-05T07:02:46.430Z,5.69
2022-11-05T07:03:17.770Z,5.69
2022-11-05T07:03:49.563Z,5.69
2022-11-05T07:04:20.871Z,5.68
2022-11-05T07:04:52.171Z,5.67
2022-11-05T07:05:23.662Z,5.68
2022-11-05T07:05:57.018Z,5.69
2022-11-05T07:06:31.893Z,5.68
2022-11-05T07:07:05.648Z,5.68
2022-11-05T07:07:38.002Z,5.68
2022-11-05T07:08:09.311Z,5.67
2022-11-05T07:08:40.718Z,5.67
2022-11-05T07:09:12.056Z,5.66
2022-11-05T07:09:44.663Z,5.66
2022-11-05T07:10:18.640Z,5.67
2022-11-05T07:10:50.002Z,5.60
2022-11-05T07:11:21.541Z,5.59
2022-11-05T07:11:52.923Z,5.63
2022-11-05T07:12:24.255Z,5.66
2022-11-05T07:12:55.621Z,5.62
2022-11-05T07:13:27.318Z,5.65
2022-11-05T07:13:58.865Z,5.66
2022-11-05T07:14:30.192Z,5.67
2022-11-05T07:15:01.597Z,5.67
2022-11-05T07:15:32.951Z,5.66
2022-11-05T07:16:04.565Z,5.68
2022-11-05T07:16:35.892Z,5.68
2022-11-05T07:17:07.319Z,5.66
2022-11-05T07:17:39.602Z,5.66
2022-11-05T07:18:10.943Z,5.69
2022-11-05T07:18:42.308Z,5.67
2022-11-05T07:19:13.828Z,5.67
2022-11-05T07:19:45.180Z,5.70
2022-11-05T07:20:16.534Z,5.73
2022-11-05T07:20:48.840Z,5.73
2022-11-05T07:21:20.241Z,5.73
2022-11-05T07:21:52.529Z,5.73
2022-11-05T07:22:23.855Z,5.71
2022-11-05T07:23:06.389Z,5.74
2022-11-05T07:23:37.899Z,5.75
2022-11-05T07:24:09.200Z,5.73
2022-11-05T07:24:40.580Z,5.76
2022-11-05T07:25:11.961Z,5.76
2022-11-05T07:25:43.665Z,5.77
2022-11-05T07:26:14.999Z,5.76
2022-11-05T07:26:46.332Z,5.75
2022-11-05T07:27:17.716Z,5.80
2022-11-05T07:27:49.063Z,5.81
2022-11-05T07:28:20.601Z,5.79
2022-11-05T07:28:52.098Z,5.81
2022-11-05T07:29:23.561Z,5.83
2022-11-05T07:29:54.880Z,5.84
2022-11-05T07:30:27.042Z,5.84
2022-11-05T07:30:59.279Z,5.84
2022-11-05T07:31:30.696Z,5.83
2022-11-05T07:32:02.029Z,5.83
2022-11-05T07:32:40.426Z,5.82
2022-11-05T07:33:12.340Z,5.85
2022-11-05T07:33:44.172Z,5.85
2022-11-05T07:34:15.735Z,5.86
2022-11-05T07:34:47.328Z,5.87
2022-11-05T07:35:18.682Z,5.90
2022-11-05T07:35:50.004Z,5.90
2022-11-05T07:36:21.476Z,5.91
2022-11-05T07:36:52.956Z,5.92
2022-11-05T07:37:24.505Z,5.93
2022-11-05T07:37:56.320Z,5.95
2022-11-05T07:38:27.692Z,5.96
2022-11-05T07:39:00.538Z,5.94
2022-11-05T07:39:32.067Z,5.97
2022-11-05T07:40:03.692Z,5.99
2022-11-05T07:40:35.118Z,5.96
2022-11-05T07:41:06.575Z,5.99
2022-11-05T07:41:37.907Z,6.00
2022-11-05T07:42:13.393Z,6.01
2022-11-05T07:42:46.313Z,6.02
2022-11-05T07:43:17.823Z,5.99
2022-11-05T07:43:49.326Z,6.04
2022-11-05T07:44:21.643Z,6.04
2022-11-05T07:44:52.942Z,6.05
2022-11-05T07:45:25.498Z,6.06
2022-11-05T07:45:56.970Z,6.08
2022-11-05T07:46:28.519Z,6.06
2022-11-05T07:46:59.819Z,6.07
2022-11-05T07:47:31.125Z,6.10
2022-11-05T07:48:04.457Z,6.10
2022-11-05T07:48:37.422Z,6.07
2022-11-05T07:49:08.768Z,6.10
2022-11-05T07:49:40.282Z,6.11
2022-11-05T07:50:11.606Z,6.08
2022-11-05T07:50:43.118Z,6.13
2022-11-05T07:51:14.426Z,6.13
2022-11-05T07:51:45.867Z,6.12
2022-11-05T07:52:17.446Z,6.14
2022-11-05T07:52:49.042Z,6.14
2022-11-05T07:53:23.229Z,6.18
2022-11-05T07:53:54.768Z,6.16
2022-11-05T07:54:26.937Z,6.19
2022-11-05T07:54:58.383Z,6.16
2022-11-05T07:55:30.543Z,6.19
2022-11-05T07:56:01.913Z,6.19
2022-11-05T07:56:33.494Z,6.20
2022-11-05T07:57:04.848Z,6.21
2022-11-05T07:57:42.285Z,6.24